Time;durP1;ratioP1;P1;durP2;ratioP2;P2;SDS_P1;SDS_P2;PMS_P1;PMS_P2;Temp;Humidity;BMP_temperature;BMP_pressure;BME280_temperature;BME280_humidity;BME280_pressure;Samples;Min_cycle;Max_cycle;Signal;HPM_P1;HPM_P2
2022/01/07 00:00:56;;;;;;;;;;;;;;;-3.24;100.00;101117.81;5056752;28;986;-77
2022/01/07 00:03:23;;;;;;;;;;;;;;;-3.17;100.00;101112.41;5056376;28;1149;-77
2022/01/07 00:05:50;;;;;;;;;;;;;;;-3.13;100.00;101109.63;5060993;28;1301;-76
2022/01/07 00:08:16;;;;;;;;;;;;;;;-3.11;100.00;101114.94;5079620;28;978;-77
2022/01/07 00:10:42;;;;;;;;;;;;;;;-3.10;100.00;101106.94;5077013;28;1906;-76
2022/01/07 00:13:09;;;;;;;;;;;;;;;-3.06;100.00;101105.09;5078079;28;816;-77
2022/01/07 00:15:35;;;;;;;;;;;;;;;-3.04;100.00;101111.25;5043571;28;1508;-75
2022/01/07 00:18:01;;;;;;;;;;;;;;;-3.01;100.00;101105.03;5075598;28;797;-77
2022/01/07 00:20:29;;;;;;;;;;;;;;;-2.99;100.00;101097.88;5058026;28;788;-77
2022/01/07 00:22:55;;;;;;;;;;;;;;;-2.99;100.00;101100.53;5075571;28;1055;-77
2022/01/07 00:25:23;;;;;;;;;;;;;;;-3.00;100.00;101105.00;5075392;28;1383;-75
2022/01/07 00:27:50;;;;;;;;;;;;;;;-3.01;100.00;101094.38;5057191;28;1049;-75
2022/01/07 00:30:17;;;;;;;;;;;;;;;-3.06;100.00;101094.47;5057544;28;1128;-75
2022/01/07 00:32:43;;;;;;;;;;;;;;;-3.13;100.00;101096.34;5075471;28;1030;-75
2022/01/07 00:35:10;;;;;;;;;;;;;;;-3.19;100.00;101093.84;5057175;28;1336;-76
2022/01/07 00:37:37;;;;;;;;;;;;;;;-3.23;100.00;101095.66;5057232;28;958;-75
2022/01/07 00:40:05;;;;;;;;;;;;;;;-3.26;100.00;101103.69;5075072;28;986;-74
2022/01/07 00:42:31;;;;;;;;;;;;;;;-3.23;100.00;101100.97;5075865;28;1049;-76
2022/01/07 00:44:57;;;;;;;;;;;;;;;-3.21;100.00;101099.19;5074830;28;1279;-76
2022/01/07 00:47:24;;;;;;;;;;;;;;;-3.21;100.00;101099.19;5074270;28;1151;-75
2022/01/07 00:49:50;;;;;;;;;;;;;;;-3.23;100.00;101102.75;5075064;28;899;-76
2022/01/07 00:52:17;;;;;;;;;;;;;;;-3.24;100.00;101099.22;5073896;28;1985;-77
2022/01/07 00:54:44;;;;;;;;;;;;;;;-3.27;100.00;101093.97;5075154;28;1379;-76
2022/01/07 00:57:11;;;;;;;;;;;;;;;-3.30;100.00;101095.78;5073666;28;1059;-77
2022/01/07 00:59:37;;;;;;;;;;;;;;;-3.36;100.00;101088.81;5075081;28;1038;-76
2022/01/07 01:02:04;;;;;;;;;;;;;;;-3.41;100.00;101095.97;5074036;28;1046;-76
2022/01/07 01:04:30;;;;;;;;;;;;;;;-3.43;100.00;101092.50;5074749;28;1335;-77
2022/01/07 01:06:56;;;;;;;;;;;;;;;-3.45;100.00;101086.31;5074380;28;1016;-77
2022/01/07 01:09:22;;;;;;;;;;;;;;;-3.48;100.00;101087.25;5074765;28;895;-76
2022/01/07 01:11:50;;;;;;;;;;;;;;;-3.50;100.00;101080.22;5073359;28;1906;-75
2022/01/07 01:14:16;;;;;;;;;;;;;;;-3.55;100.00;101082.97;5074941;28;1382;-75
2022/01/07 01:16:44;;;;;;;;;;;;;;;-3.61;100.00;101077.75;5073690;28;768;-77
2022/01/07 01:19:11;;;;;;;;;;;;;;;-3.65;100.00;101071.59;5073060;28;1194;-76
2022/01/07 01:21:37;;;;;;;;;;;;;;;-3.63;100.00;101067.16;5073403;28;1185;-77
2022/01/07 01:24:04;;;;;;;;;;;;;;;-3.65;100.00;101061.00;5074146;28;1325;-77
2022/01/07 01:26:30;;;;;;;;;;;;;;;-3.66;100.00;101064.56;5055980;28;1261;-77
2022/01/07 01:28:57;;;;;;;;;;;;;;;-3.66;100.00;101061.91;5074377;28;816;-77
2022/01/07 01:31:24;;;;;;;;;;;;;;;-3.67;100.00;101062.81;5072921;28;1995;-75
2022/01/07 01:33:50;;;;;;;;;;;;;;;-3.68;100.00;101066.34;5072950;28;1318;-76
2022/01/07 01:36:16;;;;;;;;;;;;;;;-3.69;100.00;101061.94;5074584;28;883;-77
2022/01/07 01:38:43;;;;;;;;;;;;;;;-3.64;100.00;101057.44;5073914;28;1003;-77
2022/01/07 01:41:09;;;;;;;;;;;;;;;-3.62;100.00;101045.03;5074388;28;914;-77
2022/01/07 01:43:36;;;;;;;;;;;;;;;-3.63;100.00;101037.09;5073222;28;1164;-77
2022/01/07 01:46:03;;;;;;;;;;;;;;;-3.65;100.00;101031.78;5074974;28;1442;-78
2022/01/07 01:48:30;;;;;;;;;;;;;;;-3.70;100.00;101025.72;5077145;28;1240;-78
2022/01/07 01:50:56;;;;;;;;;;;;;;;-3.77;100.00;101027.59;5064613;28;1914;-77
2022/01/07 01:53:24;;;;;;;;;;;;;;;-3.83;100.00;101030.34;5066282;28;793;-77
2022/01/07 01:55:52;;;;;;;;;;;;;;;-3.88;100.00;101030.41;5073034;28;1381;-77
2022/01/07 01:58:18;;;;;;;;;;;;;;;-3.96;100.00;101023.50;5073361;28;902;-76
2022/01/07 02:00:44;;;;;;;;;;;;;;;-3.93;100.00;101021.69;5073416;28;1007;-76
2022/01/07 02:03:12;;;;;;;;;;;;;;;-3.91;100.00;101022.50;5056098;28;1515;-78
2022/01/07 02:05:38;;;;;;;;;;;;;;;-3.97;100.00;101017.28;5080125;28;1280;-76
2022/01/07 02:08:04;;;;;;;;;;;;;;;-4.00;100.00;101022.66;5058128;28;958;-77
2022/01/07 02:10:31;;;;;;;;;;;;;;;-4.06;100.00;101013.03;5076907;28;1063;-77
2022/01/07 02:12:57;;;;;;;;;;;;;;;-4.06;100.00;101012.19;5078904;28;1914;-78
2022/01/07 02:15:24;;;;;;;;;;;;;;;-4.08;100.00;101020.13;5076196;28;1292;-77
2022/01/07 02:17:53;;;;;;;;;;;;;;;-4.07;100.00;101019.25;5074486;28;986;-77
2022/01/07 02:20:25;;;;;;;;;;;;;;;-4.04;100.00;101005.06;5074008;28;966;-77
2022/01/07 02:22:51;;;;;;;;;;;;;;;-4.07;100.00;101007.75;5074153;28;1057;-76
2022/01/07 02:25:20;;;;;;;;;;;;;;;-4.12;100.00;101013.13;5073637;28;1356;-78
2022/01/07 02:27:46;;;;;;;;;;;;;;;-4.19;100.00;101022.09;5072891;28;1188;-76
2022/01/07 02:30:14;;;;;;;;;;;;;;;-4.26;100.00;101018.66;5054619;28;2281;-78
2022/01/07 02:32:40;;;;;;;;;;;;;;;-4.23;100.00;101015.94;5073241;28;1918;-78
2022/01/07 02:35:08;;;;;;;;;;;;;;;-4.14;100.00;101011.41;5157744;22;1910;-73
2022/01/07 02:37:36;;;;;;;;;;;;;;;-4.12;100.00;101010.47;5090501;28;887;-72
2022/01/07 02:40:03;;;;;;;;;;;;;;;-4.05;100.00;101004.19;5091897;28;954;-72
2022/01/07 02:42:30;;;;;;;;;;;;;;;-4.04;100.00;101000.59;5091807;28;990;-73
2022/01/07 02:44:56;;;;;;;;;;;;;;;-3.95;100.00;100998.72;5091600;28;1386;-73
2022/01/07 02:47:24;;;;;;;;;;;;;;;-3.92;100.00;101001.31;5091450;28;1195;-72
2022/01/07 02:49:50;;;;;;;;;;;;;;;-3.83;100.00;100989.69;5091511;28;868;-74
2022/01/07 02:52:16;;;;;;;;;;;;;;;-3.80;100.00;100986.97;5073556;28;1985;-73
2022/01/07 02:54:44;;;;;;;;;;;;;;;-3.75;100.00;100979.81;5091728;28;1336;-74
2022/01/07 02:57:10;;;;;;;;;;;;;;;-3.71;100.00;100976.19;5072915;28;844;-75
2022/01/07 02:59:36;;;;;;;;;;;;;;;-3.67;100.00;100964.63;5091449;28;995;-75
2022/01/07 03:02:03;;;;;;;;;;;;;;;-3.63;100.00;100957.50;5091641;28;966;-74
2022/01/07 03:04:29;;;;;;;;;;;;;;;-3.61;100.00;100967.16;5091379;28;780;-75
2022/01/07 03:06:56;;;;;;;;;;;;;;;-3.66;100.00;100965.50;5073047;28;1403;-74
2022/01/07 03:09:22;;;;;;;;;;;;;;;-3.67;100.00;100979.66;5091409;28;1026;-74
2022/01/07 03:11:49;;;;;;;;;;;;;;;-3.72;100.00;100970.00;5073038;28;1910;-72
2022/01/07 03:14:16;;;;;;;;;;;;;;;-3.75;100.00;100962.09;5090833;28;911;-75
2022/01/07 03:16:42;;;;;;;;;;;;;;;-3.78;100.00;100967.47;5072577;28;1395;-75
2022/01/07 03:19:08;;;;;;;;;;;;;;;-3.77;100.00;100969.25;5072979;28;686;-75
2022/01/07 03:21:35;;;;;;;;;;;;;;;-3.70;100.00;100972.66;5091193;28;804;-73
2022/01/07 03:24:01;;;;;;;;;;;;;;;-3.70;100.00;100968.22;5091311;28;1106;-75
2022/01/07 03:26:27;;;;;;;;;;;;;;;-3.66;100.00;100957.53;5090478;28;1336;-74
2022/01/07 03:28:55;;;;;;;;;;;;;;;-3.67;100.00;100956.66;5090897;28;990;-75
2022/01/07 03:31:21;;;;;;;;;;;;;;;-3.68;100.00;100959.34;5090599;28;1967;-74
2022/01/07 03:33:47;;;;;;;;;;;;;;;-3.64;100.00;100953.94;5090955;28;839;-74
2022/01/07 03:36:14;;;;;;;;;;;;;;;-3.60;100.00;100949.47;5090568;28;1314;-74
2022/01/07 03:38:40;;;;;;;;;;;;;;;-3.60;100.00;100954.78;5090495;28;1020;-72
2022/01/07 03:41:06;;;;;;;;;;;;;;;-3.61;100.00;100945.91;5090566;28;938;-73
2022/01/07 03:43:32;;;;;;;;;;;;;;;-3.62;100.00;100954.81;5090677;28;981;-73
2022/01/07 03:46:00;;;;;;;;;;;;;;;-3.62;100.00;100944.19;5072269;28;1463;-71
2022/01/07 03:48:26;;;;;;;;;;;;;;;-3.61;100.00;100942.41;5090774;28;887;-75
2022/01/07 03:50:53;;;;;;;;;;;;;;;-3.56;100.00;100943.19;5072402;28;994;-74
2022/01/07 03:53:19;;;;;;;;;;;;;;;-3.55;100.00;100945.81;5090643;28;1984;-74
2022/01/07 03:55:45;;;;;;;;;;;;;;;-3.53;100.00;100938.72;5090341;28;1298;-72
2022/01/07 03:58:12;;;;;;;;;;;;;;;-3.46;100.00;100943.88;5090378;28;1033;-74
2022/01/07 04:00:40;;;;;;;;;;;;;;;-3.41;100.00;100934.94;5087655;28;1467;-74
2022/01/07 04:03:09;;;;;;;;;;;;;;;-3.39;100.00;100935.75;5090396;28;915;-74
2022/01/07 04:05:36;;;;;;;;;;;;;;;-3.38;100.00;100933.97;5090721;28;1375;-75
2022/01/07 04:08:02;;;;;;;;;;;;;;;-3.35;100.00;100933.94;5072028;28;999;-74
2022/01/07 04:10:28;;;;;;;;;;;;;;;-3.32;100.00;100933.84;5090454;28;805;-75
2022/01/07 04:12:55;;;;;;;;;;;;;;;-3.28;100.00;100932.88;5090277;28;1959;-74
2022/01/07 04:15:23;;;;;;;;;;;;;;;-3.22;100.00;100932.78;5090509;28;1429;-74
2022/01/07 04:17:51;;;;;;;;;;;;;;;-3.19;100.00;100931.84;5090109;28;887;-74
2022/01/07 04:20:19;;;;;;;;;;;;;;;-3.16;100.00;100931.75;5090410;28;900;-73
2022/01/07 04:22:46;;;;;;;;;;;;;;;-3.15;100.00;100922.00;5090159;28;998;-73
2022/01/07 04:25:17;;;;;;;;;;;;;;;-3.12;100.00;100921.97;5072081;28;1274;-75
2022/01/07 04:27:43;;;;;;;;;;;;;;;-3.06;100.00;100913.84;5055259;28;1171;-75
2022/01/07 04:30:10;;;;;;;;;;;;;;;-3.01;100.00;100913.75;5090041;28;1014;-74
2022/01/07 04:32:37;;;;;;;;;;;;;;;-3.00;100.00;100908.41;5072157;28;1973;-75
2022/01/07 04:35:04;;;;;;;;;;;;;;;-2.98;100.00;100908.38;5089903;28;1301;-74
2022/01/07 04:37:31;;;;;;;;;;;;;;;-2.97;100.00;100902.16;5090106;28;990;-74
2022/01/07 04:39:57;;;;;;;;;;;;;;;-2.94;100.00;100894.09;5090004;28;875;-74
2022/01/07 04:42:24;;;;;;;;;;;;;;;-2.89;100.00;100895.72;5089986;28;1065;-73
2022/01/07 04:44:50;;;;;;;;;;;;;;;-2.83;100.00;100889.44;5089789;28;1317;-73
2022/01/07 04:47:16;;;;;;;;;;;;;;;-2.80;100.00;100880.50;5084196;28;1261;-73
2022/01/07 04:49:42;;;;;;;;;;;;;;;-2.73;100.00;100882.09;5070167;28;970;-74
2022/01/07 04:52:09;;;;;;;;;;;;;;;-2.72;100.00;100875.88;5073465;28;1910;-75
2022/01/07 04:54:36;;;;;;;;;;;;;;;-2.73;100.00;100872.34;5083288;28;2012;-73
2022/01/07 04:57:03;;;;;;;;;;;;;;;-2.73;100.00;100868.81;5089152;28;1747;-75
2022/01/07 04:59:29;;;;;;;;;;;;;;;-2.75;100.00;100868.84;5088051;28;1165;-73
2022/01/07 05:01:55;;;;;;;;;;;;;;;-2.73;100.00;100866.16;5072497;28;1122;-75
2022/01/07 05:04:22;;;;;;;;;;;;;;;-2.73;100.00;100866.16;5055520;28;963;-76
2022/01/07 05:06:48;;;;;;;;;;;;;;;-2.73;100.00;100863.50;5072880;28;1308;-74
2022/01/07 05:09:16;;;;;;;;;;;;;;;-2.74;100.00;100864.41;5055524;28;834;-75
2022/01/07 05:11:44;;;;;;;;;;;;;;;-2.71;100.00;100869.66;5072976;28;990;-76
2022/01/07 05:14:10;;;;;;;;;;;;;;;-2.70;100.00;100860.75;5073392;28;1989;-75
2022/01/07 05:16:36;;;;;;;;;;;;;;;-2.68;100.00;100861.63;5072681;28;1310;-73
2022/01/07 05:19:03;;;;;;;;;;;;;;;-2.67;100.00;100854.50;5072843;28;1031;-72
2022/01/07 05:21:29;;;;;;;;;;;;;;;-2.63;100.00;100857.06;5073082;28;880;-74
2022/01/07 05:23:55;;;;;;;;;;;;;;;-2.60;100.00;100840.16;5055249;28;1186;-73
2022/01/07 05:26:22;;;;;;;;;;;;;;;-2.59;100.00;100839.22;5072442;28;1371;-72
2022/01/07 05:28:50;;;;;;;;;;;;;;;-2.60;100.00;100838.38;5072748;28;1002;-73
2022/01/07 05:31:17;;;;;;;;;;;;;;;-2.54;100.00;100838.22;5072767;28;808;-73
2022/01/07 05:33:43;;;;;;;;;;;;;;;-2.53;100.00;100837.28;5055123;28;1910;-74
2022/01/07 05:36:09;;;;;;;;;;;;;;;-2.52;100.00;100827.56;5072357;28;1348;-74
2022/01/07 05:38:36;;;;;;;;;;;;;;;-2.51;100.00;100824.00;5072798;28;757;-74
2022/01/07 05:41:02;;;;;;;;;;;;;;;-2.49;100.00;100816.81;5072782;28;733;-75
2022/01/07 05:43:29;;;;;;;;;;;;;;;-2.47;100.00;100811.47;5072409;28;979;-74
2022/01/07 05:45:57;;;;;;;;;;;;;;;-2.47;100.00;100806.16;5054332;28;1423;-74
2022/01/07 05:48:24;;;;;;;;;;;;;;;-2.47;100.00;100806.16;5054746;28;943;-74
2022/01/07 05:50:50;;;;;;;;;;;;;;;-2.43;100.00;100802.50;5072409;28;1158;-74
2022/01/07 05:53:16;;;;;;;;;;;;;;;-2.43;100.00;100806.06;5072235;28;1981;-74
2022/01/07 05:55:43;;;;;;;;;;;;;;;-2.41;100.00;100804.22;5053595;28;1300;-74
2022/01/07 05:58:09;;;;;;;;;;;;;;;-2.38;100.00;100795.28;5071177;28;950;-75
2022/01/07 06:00:35;;;;;;;;;;;;;;;-2.37;100.00;100789.06;5073975;28;1503;-75
2022/01/07 06:03:03;;;;;;;;;;;;;;;-2.33;100.00;100784.53;5077788;28;1516;-78
2022/01/07 06:05:29;;;;;;;;;;;;;;;-2.31;100.00;100785.34;5072330;28;1389;-75
2022/01/07 06:07:55;;;;;;;;;;;;;;;-2.29;100.00;100792.38;5072371;28;1041;-77
2022/01/07 06:10:22;;;;;;;;;;;;;;;-2.29;100.00;100788.84;5072333;28;1042;-77
2022/01/07 06:12:48;;;;;;;;;;;;;;;-2.29;100.00;100787.06;5072146;28;1958;-77
2022/01/07 06:15:14;;;;;;;;;;;;;;;-2.28;100.00;100788.81;5069827;28;1497;-77
2022/01/07 06:17:41;;;;;;;;;;;;;;;-2.29;100.00;100771.09;5074148;28;1002;-77
2022/01/07 06:20:09;;;;;;;;;;;;;;;-2.28;100.00;100772.00;5089183;28;1615;-78
2022/01/07 06:22:36;;;;;;;;;;;;;;;-2.30;100.00;100768.50;5091892;28;875;-75
2022/01/07 06:25:02;;;;;;;;;;;;;;;-2.28;100.00;100772.00;5065075;28;1506;-75
2022/01/07 06:27:29;;;;;;;;;;;;;;;-2.26;100.00;100770.16;5072256;28;2032;-76
2022/01/07 06:29:57;;;;;;;;;;;;;;;-2.24;100.00;100765.66;5089085;28;1556;-74
2022/01/07 06:32:23;;;;;;;;;;;;;;;-2.27;100.00;100771.06;5093747;28;1922;-76
2022/01/07 06:34:49;;;;;;;;;;;;;;;-2.26;100.00;100770.16;5092731;28;1400;-75
2022/01/07 06:37:17;;;;;;;;;;;;;;;-2.25;100.00;100759.47;5072067;28;1187;-76
2022/01/07 06:39:43;;;;;;;;;;;;;;;-2.23;100.00;100754.97;5071139;28;1492;-76
2022/01/07 06:42:09;;;;;;;;;;;;;;;-2.22;100.00;100756.75;5088563;28;897;-75
2022/01/07 06:44:36;;;;;;;;;;;;;;;-2.23;100.00;100762.97;5066276;28;2089;-74
2022/01/07 06:47:03;;;;;;;;;;;;;;;-2.24;100.00;100777.16;5064444;28;1387;-74
2022/01/07 06:49:29;;;;;;;;;;;;;;;-2.25;100.00;100762.13;5082821;28;1187;-76
2022/01/07 06:51:56;;;;;;;;;;;;;;;-2.26;100.00;100760.41;5084801;28;893;-76
2022/01/07 06:54:23;;;;;;;;;;;;;;;-2.25;100.00;100761.25;5059168;28;1979;-74
2022/01/07 06:56:50;;;;;;;;;;;;;;;-2.25;100.00;100756.81;5089152;28;1288;-77
2022/01/07 06:59:16;;;;;;;;;;;;;;;-2.24;100.00;100758.56;5091343;28;840;-77
2022/01/07 07:01:43;;;;;;;;;;;;;;;-2.24;100.00;100755.91;5092003;28;904;-78
2022/01/07 07:04:09;;;;;;;;;;;;;;;-2.25;100.00;100759.47;5081421;28;1109;-75
2022/01/07 07:06:35;;;;;;;;;;;;;;;-2.23;100.00;100767.38;5085117;28;1486;-74
2022/01/07 07:09:02;;;;;;;;;;;;;;;-2.25;100.00;100761.25;5068860;28;951;-76
2022/01/07 07:11:30;;;;;;;;;;;;;;;-2.24;100.00;100769.19;5070284;28;1098;-76
2022/01/07 07:13:57;;;;;;;;;;;;;;;-2.23;100.00;100757.66;5073788;28;1918;-73
2022/01/07 07:16:23;;;;;;;;;;;;;;;-2.23;100.00;100760.31;5082774;28;1520;-74
2022/01/07 07:18:49;;;;;;;;;;;;;;;-2.23;100.00;100770.94;5069845;28;1053;-76
2022/01/07 07:21:16;;;;;;;;;;;;;;;-2.24;100.00;100760.34;5078926;28;1029;-76
2022/01/07 07:23:42;;;;;;;;;;;;;;;-2.21;100.00;100754.94;5056325;28;988;-75
2022/01/07 07:26:08;;;;;;;;;;;;;;;-2.21;100.00;100752.28;5067640;28;1532;-75
2022/01/07 07:28:37;;;;;;;;;;;;;;;-2.20;100.00;100752.22;5098378;28;1062;-75
2022/01/07 07:31:05;;;;;;;;;;;;;;;-2.15;100.00;100751.22;5070520;28;899;-76
2022/01/07 07:33:54;;;;;;;;;;;;;;;-2.15;100.00;100741.47;5085011;28;1910;-75
2022/01/07 07:36:30;;;;;;;;;;;;;;;-2.11;100.00;100742.25;5069449;28;1540;-75
2022/01/07 07:38:57;;;;;;;;;;;;;;;-2.09;100.00;100735.09;5091990;28;2314;-75
2022/01/07 07:41:24;;;;;;;;;;;;;;;-2.06;100.00;100741.22;5075398;28;1026;-73
2022/01/07 07:43:51;;;;;;;;;;;;;;;-2.00;100.00;100740.16;5077055;28;1551;-76
2022/01/07 07:46:18;;;;;;;;;;;;;;;-1.99;100.00;100738.34;5089954;28;1425;-76
2022/01/07 07:48:45;;;;;;;;;;;;;;;-1.95;100.00;100735.59;5090655;28;982;-76
2022/01/07 07:51:12;;;;;;;;;;;;;;;-1.94;100.00;100734.66;5090327;28;902;-75
2022/01/07 07:53:38;;;;;;;;;;;;;;;-1.89;100.00;100738.03;5094987;28;1969;-76
2022/01/07 07:56:05;;;;;;;;;;;;;;;-1.82;100.00;100728.09;5105117;28;1338;-76
2022/01/07 07:58:31;;;;;;;;;;;;;;;-1.75;100.00;100724.34;5052364;28;1641;-74
2022/01/07 08:00:59;;;;;;;;;;;;;;;-1.67;100.00;100712.59;5070845;28;941;-73
2022/01/07 08:03:26;;;;;;;;;;;;;;;-1.61;100.00;100709.75;5089794;28;922;-74
2022/01/07 08:05:52;;;;;;;;;;;;;;;-1.53;100.00;100705.91;5082349;28;1674;-76
2022/01/07 08:08:18;;;;;;;;;;;;;;;-1.46;100.00;100703.91;5085831;28;1454;-77
2022/01/07 08:10:48;;;;;;;;;;;;;;;-1.38;100.00;100706.34;5078656;28;1504;-75
2022/01/07 08:13:29;;;;;;;;;;;;;;;-1.32;100.00;100699.94;5110523;28;1968;-76
2022/01/07 08:16:02;;;;;;;;;;;;;;;-1.28;100.00;100697.16;5075275;28;1423;-77
2022/01/07 08:18:30;;;;;;;;;;;;;;;-1.25;100.00;100691.72;5052306;28;729;-74
2022/01/07 08:20:57;;;;;;;;;;;;;;;-1.21;100.00;100687.16;5070569;28;855;-74
2022/01/07 08:23:23;;;;;;;;;;;;;;;-1.16;100.00;100684.31;5076300;28;974;-75
2022/01/07 08:25:50;;;;;;;;;;;;;;;-1.17;100.00;100683.47;5092501;28;1332;-75
2022/01/07 08:28:17;;;;;;;;;;;;;;;-1.12;100.00;100688.63;5061457;28;1571;-75
2022/01/07 08:31:11;;;;;;;;;;;;;;;-1.08;100.00;100684.94;5109656;28;1492;-75
2022/01/07 08:36:25;;;;;;;;;;;;;;;-1.01;100.00;100676.69;5106391;22;3591;-74
2022/01/07 08:38:53;;;;;;;;;;;;;;;-0.95;100.00;100680.97;5097835;28;1260;-75
2022/01/07 08:41:20;;;;;;;;;;;;;;;-0.89;100.00;100677.22;5100402;28;1086;-75
2022/01/07 08:43:47;;;;;;;;;;;;;;;-0.85;100.00;100671.72;5079986;28;1159;-73
2022/01/07 08:46:13;;;;;;;;;;;;;;;-0.82;100.00;100678.72;5074672;28;1474;-74
2022/01/07 08:48:40;;;;;;;;;;;;;;;-0.81;100.00;100674.28;5074848;28;970;-76
2022/01/07 08:51:08;;;;;;;;;;;;;;;-0.80;100.00;100671.56;5089498;28;1084;-78
2022/01/07 08:53:36;;;;;;;;;;;;;;;-0.77;100.00;100666.13;5062101;28;1910;-79
2022/01/07 08:56:03;;;;;;;;;;;;;;;-0.76;100.00;100664.31;5075734;28;1473;-76
2022/01/07 08:58:30;;;;;;;;;;;;;;;-0.71;100.00;100662.34;5077565;28;1000;-78
2022/01/07 09:00:56;;;;;;;;;;;;;;;-0.71;100.00;100659.69;5075416;28;918;-73
2022/01/07 09:03:23;;;;;;;;;;;;;;;-0.66;100.00;100657.72;5056217;28;1331;-76
2022/01/07 09:05:51;;;;;;;;;;;;;;;-0.63;100.00;100657.63;5044678;28;1152;-76
2022/01/07 09:08:17;;;;;;;;;;;;;;;-0.56;100.00;100653.81;5057843;28;1431;-77
2022/01/07 09:10:44;;;;;;;;;;;;;;;-0.53;100.00;100658.19;5056891;28;1201;-75
2022/01/07 09:13:10;;;;;;;;;;;;;;;-0.47;100.00;100659.75;5058486;28;1910;-77
2022/01/07 09:15:37;;;;;;;;;;;;;;;-0.44;100.00;100651.63;5075667;28;1568;-74
2022/01/07 09:18:09;;;;;;;;;;;;;;;-0.36;100.00;100652.19;5058411;28;1604;-76
2022/01/07 09:20:36;;;;;;;;;;;;;;;-0.31;100.00;100657.38;5074735;28;1351;-74
2022/01/07 09:23:04;;;;;;;;;;;;;;;-0.26;100.00;100658.94;5052914;28;1524;-75
2022/01/07 09:25:31;;;;;;;;;;;;;;;-0.21;100.00;100658.78;5075990;28;811;-76
2022/01/07 09:27:57;;;;;;;;;;;;;;;-0.17;100.00;100655.06;5074103;28;1409;-76
2022/01/07 09:30:23;;;;;;;;;;;;;;;-0.11;100.00;100657.50;5058205;28;983;-76
2022/01/07 09:32:50;;;;;;;;;;;;;;;-0.03;100.00;100654.53;5076232;28;965;-76
2022/01/07 09:35:17;;;;;;;;;;;;;;;0.01;100.00;100648.16;5076493;28;1972;-74
2022/01/07 09:37:43;;;;;;;;;;;;;;;0.10;100.00;100650.47;5056453;28;1307;-76
2022/01/07 09:40:12;;;;;;;;;;;;;;;0.12;100.00;100640.63;5060661;28;1361;-76
2022/01/07 09:42:38;;;;;;;;;;;;;;;0.20;100.00;100636.75;5077751;28;1096;-76
2022/01/07 09:45:05;;;;;;;;;;;;;;;0.21;100.00;100635.84;5073982;28;910;-75
2022/01/07 09:47:32;;;;;;;;;;;;;;;0.25;100.00;100630.28;5075107;28;1325;-77
2022/01/07 09:49:59;;;;;;;;;;;;;;;0.28;100.00;100629.31;5088185;28;1477;-77
2022/01/07 09:52:25;;;;;;;;;;;;;;;0.32;100.00;100617.56;5091044;28;1557;-78
2022/01/07 09:54:51;;;;;;;;;;;;;;;0.32;100.00;100617.56;5049631;28;1914;-77
2022/01/07 09:57:19;;;;;;;;;;;;;;;0.38;100.00;100619.16;5065990;28;1450;-78
2022/01/07 09:59:51;;;;;;;;;;;;;;;0.45;100.00;100618.81;5082767;28;1188;-79
2022/01/07 10:02:18;;;;;;;;;;;;;;;0.57;100.00;100611.25;5063900;28;986;-78
2022/01/07 10:04:44;;;;;;;;;;;;;;;0.71;100.00;100616.88;5063657;28;1483;-78
2022/01/07 10:07:12;;;;;;;;;;;;;;;0.94;100.00;100599.84;5064250;28;1471;-77
2022/01/07 10:09:39;;;;;;;;;;;;;;;1.11;100.00;100596.47;5097974;28;929;-77
2022/01/07 10:12:06;;;;;;;;;;;;;;;1.21;100.00;100596.91;5096239;28;1362;-76
2022/01/07 10:14:36;;;;;;;;;;;;;;;1.34;100.00;100590.06;5098067;28;1918;-77
2022/01/07 10:17:03;;;;;;;;;;;;;;;1.48;100.00;100586.78;5068652;28;1516;-78
2022/01/07 10:19:34;;;;;;;;;;;;;;;1.44;100.00;100581.63;5059668;28;1505;-77
2022/01/07 10:22:03;;;;;;;;;;;;;;;1.69;100.00;100573.34;5059710;28;1109;-76
2022/01/07 10:24:30;;;;;;;;;;;;;;;2.16;100.00;100569.34;5079090;28;1298;-77
2022/01/07 10:27:09;;;;;;;;;;;;;;;2.47;100.00;100571.41;5076086;28;1491;-77
2022/01/07 10:29:39;;;;;;;;;;;;;;;2.55;100.00;100562.09;5054871;28;1309;-77
2022/01/07 10:32:21;;;;;;;;;;;;;;;2.64;100.00;100550.91;5055254;28;1086;-77
2022/01/07 10:35:00;;;;;;;;;;;;;;;2.65;100.00;100550.81;5036628;28;1914;-77
2022/01/07 10:37:27;;;;;;;;;;;;;;;2.46;100.00;100558.03;5052314;28;1423;-75
2022/01/07 10:39:53;;;;;;;;;;;;;;;2.34;100.00;100554.19;5071953;28;1490;-74
2022/01/07 10:42:22;;;;;;;;;;;;;;;2.21;100.00;100553.06;5073898;28;1529;-76
2022/01/07 10:44:59;;;;;;;;;;;;;;;2.10;100.00;100551.78;5076511;28;1541;-77
2022/01/07 10:47:26;;;;;;;;;;;;;;;1.99;100.00;100548.72;5062157;28;1383;-77
2022/01/07 10:50:12;;;;;;;;;;;;;;;1.91;100.00;100543.78;5081831;28;1501;-77
2022/01/07 10:52:39;;;;;;;;;;;;;;;1.79;100.00;100547.91;5062627;28;1509;-78
2022/01/07 10:55:09;;;;;;;;;;;;;;;1.73;100.00;100540.16;5064852;28;1957;-76
2022/01/07 10:57:37;;;;;;;;;;;;;;;1.65;100.00;100545.00;5082469;28;1407;-76
2022/01/07 11:00:09;;;;;;;;;;;;;;;1.59;100.00;100539.91;5081600;28;1998;-77
2022/01/07 11:02:35;;;;;;;;;;;;;;;1.56;100.00;100545.44;5083374;28;1201;-75
2022/01/07 11:05:04;;;;;;;;;;;;;;;1.55;100.00;100543.69;5078830;28;1369;-77
2022/01/07 11:07:31;;;;;;;;;;;;;;;1.48;100.00;100544.00;5075573;28;1371;-74
2022/01/07 11:09:57;;;;;;;;;;;;;;;1.57;100.00;100541.81;5073984;28;1354;-76
2022/01/07 11:12:25;;;;;;;;;;;;;;;1.60;100.00;100530.97;5076659;28;1188;-76
2022/01/07 11:14:51;;;;;;;;;;;;;;;1.59;100.00;100535.47;5076750;28;1975;-74
2022/01/07 11:17:21;;;;;;;;;;;;;;;1.54;100.00;100526.78;5039208;28;1344;-75
2022/01/07 11:19:51;;;;;;;;;;;;;;;1.57;100.00;100525.75;5074848;28;855;-76
2022/01/07 11:22:17;;;;;;;;;;;;;;;1.55;100.00;100533.88;5068625;28;1112;-75
2022/01/07 11:24:45;;;;;;;;;;;;;;;1.56;100.00;100529.38;5053512;28;1502;-74
2022/01/07 11:27:12;;;;;;;;;;;;;;;1.59;100.00;100531.91;5073663;28;1532;-75
2022/01/07 11:29:40;;;;;;;;;;;;;;;1.58;100.00;100516.81;5071802;28;1588;-74
2022/01/07 11:32:25;;;;;;;;;;;;;;;1.59;100.00;100513.16;5075506;28;906;-75
2022/01/07 11:34:53;;;;;;;;;;;;;;;1.56;100.00;100514.16;5073750;28;1910;-77
2022/01/07 11:37:33;;;;;;;;;;;;;;;1.59;100.00;100513.16;5090387;28;1414;-76
2022/01/07 11:39:59;;;;;;;;;;;;;;;1.54;100.00;100505.38;5071755;28;1314;-76
2022/01/07 11:42:38;;;;;;;;;;;;;;;1.56;100.00;100505.28;5071044;28;917;-76
2022/01/07 11:45:19;;;;;;;;;;;;;;;1.54;100.00;100510.72;5070504;28;894;-75
2022/01/07 11:47:48;;;;;;;;;;;;;;;1.53;100.00;100506.31;5070610;28;2017;-77
2022/01/07 11:50:15;;;;;;;;;;;;;;;1.54;100.00;100505.38;5035657;28;1565;-74
2022/01/07 11:52:54;;;;;;;;;;;;;;;1.50;100.00;100501.97;5070866;28;1454;-78
2022/01/07 11:55:21;;;;;;;;;;;;;;;1.44;100.00;100509.41;5072686;28;1970;-77
2022/01/07 11:57:48;;;;;;;;;;;;;;;1.44;100.00;100507.63;5035166;28;1783;-75
2022/01/07 12:00:14;;;;;;;;;;;;;;;1.37;100.00;100510.66;5072094;28;1508;-76
2022/01/07 12:02:56;;;;;;;;;;;;;;;1.33;100.00;100509.91;5071549;28;1645;-76
2022/01/07 12:05:30;;;;;;;;;;;;;;;1.29;100.00;100514.53;5070729;28;1909;-75
2022/01/07 12:07:56;;;;;;;;;;;;;;;1.21;100.00;100502.47;5072100;28;1324;-76
2022/01/07 12:10:23;;;;;;;;;;;;;;;1.17;100.00;100513.28;5073410;28;1532;-76
2022/01/07 12:12:50;;;;;;;;;;;;;;;1.13;100.00;100510.81;5053000;28;979;-75
2022/01/07 12:15:16;;;;;;;;;;;;;;;1.06;100.00;100514.72;5053970;28;1910;-78
2022/01/07 12:17:42;;;;;;;;;;;;;;;1.03;100.00;100509.50;5074041;28;1324;-77
2022/01/07 12:20:24;;;;;;;;;;;;;;;1.06;100.00;100515.56;5076984;28;1489;-78
2022/01/07 12:22:52;;;;;;;;;;;;;;;1.06;100.00;100510.22;5056708;28;1513;-72
2022/01/07 12:25:18;;;;;;;;;;;;;;;1.05;100.00;100496.94;5075360;28;919;-77
2022/01/07 12:27:45;;;;;;;;;;;;;;;1.08;100.00;100497.69;5087416;28;1397;-77
2022/01/07 12:30:13;;;;;;;;;;;;;;;1.07;100.00;100497.72;5058850;28;996;-78
2022/01/07 12:32:39;;;;;;;;;;;;;;;1.06;100.00;100491.50;5058982;28;991;-76
2022/01/07 12:35:06;;;;;;;;;;;;;;;1.10;100.00;100485.09;5065940;28;1883;-75
2022/01/07 12:37:33;;;;;;;;;;;;;;;1.07;100.00;100492.38;5079310;28;1479;-75
2022/01/07 12:40:01;;;;;;;;;;;;;;;1.07;100.00;100485.25;5038948;28;1540;-74
2022/01/07 12:42:29;;;;;;;;;;;;;;;1.10;100.00;100489.59;5052769;28;1283;-75
2022/01/07 12:44:57;;;;;;;;;;;;;;;1.07;100.00;100481.69;5070170;28;1587;-74
2022/01/07 12:47:25;;;;;;;;;;;;;;;1.04;100.00;100480.00;5051493;28;1326;-73